createdAt,value
2018-12-09T00:00:26.819Z,1.00
2018-12-09T00:02:57.430Z,1.10
2018-12-09T00:05:25.851Z,1.45
2018-12-09T00:07:53.598Z,2.02
2018-12-09T00:10:21.423Z,1.17
2018-12-09T00:12:53.803Z,1.27
2018-12-09T00:15:21.631Z,1.27
2018-12-09T00:17:49.468Z,1.12
2018-12-09T00:20:17.223Z,1.10
2018-12-09T00:22:44.983Z,1.10
2018-12-09T00:25:13.512Z,1.72
2018-12-09T00:27:41.271Z,1.30
2018-12-09T00:30:09.275Z,1.70
2018-12-09T00:32:36.996Z,3.33
2018-12-09T00:35:05.001Z,1.37
2018-12-09T00:37:33.203Z,1.70
2018-12-09T00:40:00.966Z,4.05
2018-12-09T00:42:28.698Z,2.08
2018-12-09T00:44:56.517Z,5.47
2018-12-09T00:47:24.242Z,8.50
2018-12-09T00:49:52.006Z,1.22
2018-12-09T00:52:19.860Z,2.20
2018-12-09T00:54:47.665Z,3.05
2018-12-09T00:57:15.480Z,16.80
2018-12-09T00:59:43.206Z,2.52
2018-12-09T01:02:11.023Z,4.75
2018-12-09T01:04:38.858Z,1.70
2018-12-09T01:07:06.943Z,2.58
2018-12-09T01:09:34.842Z,4.00
2018-12-09T01:12:02.564Z,6.67
2018-12-09T01:14:30.512Z,2.83
2018-12-09T01:16:58.879Z,2.83
2018-12-09T01:19:27.003Z,3.72
2018-12-09T01:21:54.859Z,4.15
2018-12-09T01:24:23.299Z,2.02
2018-12-09T01:26:51.031Z,4.33
2018-12-09T01:29:19.688Z,2.67
2018-12-09T01:31:48.300Z,7.35
2018-12-09T01:34:16.462Z,4.70
2018-12-09T01:36:45.260Z,3.27
2018-12-09T01:39:13.039Z,3.60
2018-12-09T01:41:40.982Z,7.67
2018-12-09T01:44:08.721Z,4.37
2018-12-09T01:46:36.619Z,3.05
2018-12-09T01:49:04.442Z,2.55
2018-12-09T01:51:32.336Z,2.65
2018-12-09T01:54:07.901Z,4.15
2018-12-09T01:56:35.813Z,2.00
2018-12-09T01:59:03.722Z,3.52
2018-12-09T02:01:31.461Z,7.85
2018-12-09T02:03:59.310Z,6.25
2018-12-09T02:06:27.273Z,1.65
2018-12-09T02:08:55.090Z,5.33
2018-12-09T02:11:23.008Z,1.45
2018-12-09T02:13:50.743Z,6.37
2018-12-09T02:16:18.647Z,6.92
2018-12-09T02:18:48.627Z,7.85
2018-12-09T02:21:16.431Z,16.02
2018-12-09T02:23:44.320Z,5.67
2018-12-09T02:26:12.473Z,3.58
2018-12-09T02:28:40.296Z,4.85
2018-12-09T02:31:08.135Z,11.55
2018-12-09T02:33:36.660Z,6.35
2018-12-09T02:36:04.475Z,4.42
2018-12-09T02:38:32.332Z,5.70
2018-12-09T02:41:00.664Z,5.87
2018-12-09T02:43:28.538Z,12.00
2018-12-09T02:45:56.336Z,6.25
2018-12-09T02:48:24.179Z,10.45
2018-12-09T02:50:52.051Z,4.25
2018-12-09T02:53:19.883Z,8.83
2018-12-09T02:55:47.890Z,4.47
2018-12-09T02:58:15.765Z,3.58
2018-12-09T03:00:44.997Z,7.85
2018-12-09T03:03:12.780Z,7.30
2018-12-09T03:05:40.697Z,9.80
2018-12-09T03:08:08.519Z,13.68
2018-12-09T03:10:36.287Z,3.22
2018-12-09T03:13:04.695Z,4.45
2018-12-09T03:15:33.048Z,4.33
2018-12-09T03:18:01.137Z,11.50
2018-12-09T03:20:28.991Z,7.28
2018-12-09T03:22:56.946Z,8.30
2018-12-09T03:25:24.734Z,5.67
2018-12-09T03:27:52.645Z,4.03
2018-12-09T03:30:20.418Z,9.78
2018-12-09T03:32:49.116Z,6.50
2018-12-09T03:35:17.647Z,4.10
2018-12-09T03:37:45.453Z,11.10
2018-12-09T03:40:13.297Z,6.72
2018-12-09T03:42:41.056Z,6.58
2018-12-09T03:45:09.003Z,5.50
2018-12-09T03:47:36.820Z,6.58
2018-12-09T03:50:06.485Z,9.60
2018-12-09T03:52:34.361Z,7.60
2018-12-09T03:55:02.147Z,6.05
2018-12-09T03:57:30.027Z,12.82
2018-12-09T03:59:57.888Z,6.58
2018-12-09T04:02:25.813Z,6.45
2018-12-09T04:04:54.122Z,12.90
2018-12-09T04:07:22.047Z,10.08
2018-12-09T04:09:49.857Z,9.73
2018-12-09T04:12:17.594Z,7.90
2018-12-09T04:14:45.710Z,6.90
2018-12-09T04:17:13.498Z,10.08
2018-12-09T04:19:41.394Z,13.45
2018-12-09T04:22:09.768Z,6.28
2018-12-09T04:24:37.584Z,10.23
2018-12-09T04:27:05.739Z,12.55
2018-12-09T04:29:33.512Z,15.13
2018-12-09T04:32:01.306Z,18.30
2018-12-09T04:34:29.051Z,21.12
2018-12-09T04:36:56.756Z,12.53
2018-12-09T04:39:25.848Z,21.70
2018-12-09T04:41:53.572Z,14.43
2018-12-09T04:44:21.426Z,28.80
2018-12-09T04:46:49.201Z,22.00
2018-12-09T04:49:17.055Z,48.28
2018-12-09T04:51:52.375Z,20.08
2018-12-09T04:54:21.139Z,17.60
2018-12-09T04:56:49.110Z,15.48
2018-12-09T04:59:19.215Z,23.80
2018-12-09T05:01:47.526Z,15.43
2018-12-09T05:04:15.419Z,16.27
2018-12-09T05:06:43.614Z,19.50
2018-12-09T05:09:11.458Z,23.02
2018-12-09T05:11:39.210Z,23.32
2018-12-09T05:14:10.137Z,23.30
2018-12-09T05:16:37.971Z,15.00
2018-12-09T05:19:05.860Z,21.90
2018-12-09T05:21:33.665Z,18.48
2018-12-09T05:24:01.490Z,15.40
2018-12-09T05:26:30.237Z,20.12
2018-12-09T05:28:58.113Z,17.62
2018-12-09T05:31:25.957Z,16.52
2018-12-09T05:33:54.583Z,22.30
2018-12-09T05:36:22.438Z,17.35
2018-12-09T05:38:50.172Z,14.05
2018-12-09T05:41:19.046Z,17.92
2018-12-09T05:43:46.781Z,18.25
2018-12-09T05:46:14.634Z,24.07
2018-12-09T05:48:43.210Z,25.60
2018-12-09T05:51:18.967Z,14.73
2018-12-09T05:53:46.855Z,12.45
2018-12-09T05:56:14.723Z,16.67
2018-12-09T05:58:43.740Z,14.93
2018-12-09T06:01:11.552Z,21.12
2018-12-09T06:03:39.366Z,27.45
2018-12-09T06:06:08.173Z,16.42
2018-12-09T06:08:36.994Z,9.10
2018-12-09T06:11:05.658Z,19.37
2018-12-09T06:13:34.415Z,25.50
2018-12-09T06:16:02.322Z,22.70
2018-12-09T06:18:30.208Z,13.13
2018-12-09T06:20:57.950Z,10.48
2018-12-09T06:23:26.327Z,5.12
2018-12-09T06:25:54.093Z,3.15
2018-12-09T06:28:21.877Z,6.62
2018-12-09T06:30:49.683Z,3.10
2018-12-09T06:33:17.413Z,2.33
2018-12-09T06:35:45.266Z,6.37
2018-12-09T06:38:13.036Z,4.65
2018-12-09T06:40:40.859Z,6.95
2018-12-09T06:43:08.639Z,3.75
2018-12-09T06:45:37.216Z,3.45
2018-12-09T06:48:05.031Z,1.75
2018-12-09T06:50:32.893Z,7.12
2018-12-09T06:53:01.538Z,1.30
2018-12-09T06:55:29.219Z,3.90
2018-12-09T06:57:57.903Z,5.70
2018-12-09T07:00:25.677Z,3.47
2018-12-09T07:02:53.427Z,11.03
2018-12-09T07:05:22.081Z,3.30
2018-12-09T07:07:50.861Z,6.47
2018-12-09T07:10:18.621Z,3.98
2018-12-09T07:12:46.424Z,3.65
2018-12-09T07:15:14.540Z,8.43
2018-12-09T07:17:42.296Z,5.53
2018-12-09T07:20:10.059Z,2.27
2018-12-09T07:22:38.463Z,10.15
2018-12-09T07:25:06.363Z,1.37
2018-12-09T07:27:34.435Z,4.72
2018-12-09T07:30:03.084Z,13.18
2018-12-09T07:32:31.614Z,4.15
2018-12-09T07:34:59.538Z,2.60
2018-12-09T07:37:27.287Z,6.62
2018-12-09T07:39:55.438Z,8.60
2018-12-09T07:42:23.231Z,12.13
2018-12-09T07:44:51.063Z,16.37
2018-12-09T07:47:18.877Z,8.73
2018-12-09T07:49:46.791Z,14.23
2018-12-09T07:52:14.604Z,13.83
2018-12-09T07:54:42.507Z,8.50
2018-12-09T07:57:12.312Z,11.40
2018-12-09T07:59:40.908Z,10.68
2018-12-09T08:02:08.806Z,7.87
2018-12-09T08:04:36.604Z,5.45
2018-12-09T08:07:04.499Z,10.05
2018-12-09T08:09:32.237Z,13.98
2018-12-09T08:12:00.084Z,10.82
2018-12-09T08:14:28.453Z,11.68
2018-12-09T08:16:57.196Z,12.50
2018-12-09T08:19:24.966Z,8.08
2018-12-09T08:21:52.767Z,13.22
2018-12-09T08:24:20.587Z,9.68
2018-12-09T08:26:48.330Z,11.90
2018-12-09T08:29:16.262Z,12.80
2018-12-09T08:31:44.005Z,8.13
2018-12-09T08:34:12.492Z,14.28
2018-12-09T08:36:40.281Z,13.65
2018-12-09T08:39:08.144Z,6.70
2018-12-09T08:41:35.877Z,22.85
2018-12-09T08:44:03.776Z,11.08
2018-12-09T08:46:31.578Z,16.37
2018-12-09T08:48:59.449Z,14.10
2018-12-09T08:51:27.301Z,13.25
2018-12-09T08:53:55.102Z,21.12
2018-12-09T08:56:23.050Z,13.53
2018-12-09T08:58:50.866Z,8.58
2018-12-09T09:01:18.707Z,24.95
2018-12-09T09:03:47.277Z,14.87
2018-12-09T09:06:15.951Z,28.75
2018-12-09T09:08:44.248Z,14.65
2018-12-09T09:11:12.049Z,17.25
2018-12-09T09:13:39.857Z,14.87
2018-12-09T09:16:07.619Z,11.60
2018-12-09T09:18:35.442Z,14.45
2018-12-09T09:21:03.191Z,30.65
2018-12-09T09:23:31.940Z,15.05
2018-12-09T09:25:59.685Z,20.17
2018-12-09T09:28:27.422Z,30.12
2018-12-09T09:30:55.224Z,17.02
2018-12-09T09:33:22.939Z,13.80
2018-12-09T09:35:50.707Z,17.85
2018-12-09T09:38:18.521Z,23.27
2018-12-09T09:40:46.270Z,27.73
2018-12-09T09:43:14.142Z,20.60
2018-12-09T09:45:42.081Z,22.22
2018-12-09T09:48:09.978Z,29.10
2018-12-09T09:50:37.985Z,33.40
2018-12-09T09:53:05.842Z,25.70
2018-12-09T09:55:33.677Z,19.75
2018-12-09T09:58:01.444Z,30.15
2018-12-09T10:00:29.715Z,26.05
2018-12-09T10:02:58.048Z,26.00
2018-12-09T10:05:25.876Z,19.02
2018-12-09T10:07:54.759Z,20.50
2018-12-09T10:10:22.471Z,20.95
2018-12-09T10:12:50.362Z,22.85
2018-12-09T10:15:18.296Z,16.55
2018-12-09T10:17:46.025Z,13.28
2018-12-09T10:20:13.882Z,15.83
2018-12-09T10:22:41.708Z,18.92
2018-12-09T10:25:09.586Z,25.70
2018-12-09T10:27:37.267Z,17.98
2018-12-09T10:30:07.577Z,27.52
2018-12-09T10:32:36.101Z,24.05
2018-12-09T10:35:04.475Z,24.67
2018-12-09T10:37:32.292Z,23.65
2018-12-09T10:40:00.102Z,23.57
2018-12-09T10:42:27.869Z,17.20
2018-12-09T10:44:56.511Z,12.98
2018-12-09T10:47:24.306Z,12.75
2018-12-09T10:49:52.795Z,18.65
2018-12-09T10:52:20.617Z,15.23
2018-12-09T10:54:48.442Z,24.80
2018-12-09T10:57:16.240Z,22.00
2018-12-09T10:59:44.155Z,15.58
2018-12-09T11:02:19.091Z,12.18
2018-12-09T11:04:48.235Z,25.80
2018-12-09T11:07:16.042Z,23.87
2018-12-09T11:09:43.848Z,19.67
2018-12-09T11:12:11.627Z,26.90
2018-12-09T11:14:39.534Z,21.07
2018-12-09T11:17:07.391Z,20.88
2018-12-09T11:19:35.720Z,20.50
2018-12-09T11:22:03.539Z,25.48
2018-12-09T11:24:31.281Z,20.85
2018-12-09T11:26:59.029Z,20.95
2018-12-09T11:29:27.888Z,15.50
2018-12-09T11:31:55.679Z,18.52
2018-12-09T11:34:23.506Z,23.70
2018-12-09T11:36:51.441Z,24.30
2018-12-09T11:39:19.215Z,26.17
2018-12-09T11:41:47.041Z,29.87
2018-12-09T11:44:14.814Z,20.32
2018-12-09T11:46:42.664Z,17.92
2018-12-09T11:49:10.432Z,31.95
2018-12-09T11:51:38.237Z,34.53
2018-12-09T11:54:07.019Z,22.85
2018-12-09T11:56:34.798Z,39.53
2018-12-09T11:59:03.524Z,23.95
2018-12-09T12:01:31.370Z,23.27
2018-12-09T12:03:59.151Z,26.75
2018-12-09T12:06:26.988Z,24.65
2018-12-09T12:08:54.959Z,21.90
2018-12-09T12:11:22.838Z,32.83
2018-12-09T12:13:50.740Z,15.30
2018-12-09T12:16:18.622Z,13.98
2018-12-09T12:18:47.431Z,14.30
2018-12-09T12:21:15.295Z,22.60
2018-12-09T12:23:45.222Z,18.77
2018-12-09T12:26:13.942Z,18.82
2018-12-09T12:28:41.833Z,22.45
2018-12-09T12:31:09.566Z,18.07
2018-12-09T12:33:37.371Z,11.80
2018-12-09T12:36:12.689Z,9.68
2018-12-09T12:38:40.575Z,14.28
2018-12-09T12:41:08.381Z,17.60
2018-12-09T12:43:36.315Z,12.20
2018-12-09T12:46:04.158Z,6.55
2018-12-09T12:48:32.095Z,15.55
2018-12-09T12:50:59.863Z,10.15
2018-12-09T12:53:28.608Z,11.43
2018-12-09T12:55:59.945Z,11.22
2018-12-09T12:58:27.784Z,15.03
2018-12-09T13:00:55.610Z,13.45
2018-12-09T13:03:23.716Z,7.70
2018-12-09T13:05:51.563Z,15.43
2018-12-09T13:08:19.704Z,9.78
2018-12-09T13:10:48.085Z,16.10
2018-12-09T13:13:15.959Z,6.50
2018-12-09T13:15:43.745Z,21.77
2018-12-09T13:18:12.026Z,9.28
2018-12-09T13:20:39.726Z,9.35
2018-12-09T13:23:07.566Z,10.20
2018-12-09T13:25:36.343Z,10.72
2018-12-09T13:28:04.157Z,8.73
2018-12-09T13:30:31.972Z,8.80
2018-12-09T13:32:59.796Z,9.35
2018-12-09T13:35:27.556Z,14.25
2018-12-09T13:37:55.391Z,5.85
2018-12-09T13:40:23.963Z,16.35
2018-12-09T13:42:51.799Z,12.93
2018-12-09T13:45:19.598Z,10.38
2018-12-09T13:47:47.384Z,13.50
2018-12-09T13:50:15.529Z,4.47
2018-12-09T13:52:44.489Z,30.75
2018-12-09T13:55:12.436Z,8.08
2018-12-09T13:57:41.516Z,11.60
2018-12-09T14:00:10.224Z,10.88
2018-12-09T14:02:38.952Z,4.42
2018-12-09T14:05:06.859Z,15.13
2018-12-09T14:07:36.674Z,9.33
2018-12-09T14:10:05.829Z,15.45
2018-12-09T14:12:33.573Z,4.33
2018-12-09T14:15:01.460Z,9.78
2018-12-09T14:17:29.273Z,8.35
2018-12-09T14:19:58.333Z,5.28
2018-12-09T14:22:26.215Z,11.08
2018-12-09T14:24:53.950Z,7.15
2018-12-09T14:27:23.390Z,12.00
2018-12-09T14:29:51.246Z,11.53
2018-12-09T14:32:19.190Z,9.18
2018-12-09T14:34:46.967Z,16.40
2018-12-09T14:37:14.741Z,8.98
2018-12-09T14:39:42.557Z,17.92
2018-12-09T14:42:10.344Z,10.18
2018-12-09T14:44:38.877Z,6.87
2018-12-09T14:47:06.860Z,6.95
2018-12-09T14:49:34.664Z,14.75
2018-12-09T14:52:02.577Z,14.50
2018-12-09T14:54:30.371Z,13.13
2018-12-09T14:56:58.735Z,11.45
2018-12-09T14:59:26.740Z,17.55
2018-12-09T15:01:54.494Z,11.40
2018-12-09T15:04:22.311Z,8.05
2018-12-09T15:06:50.992Z,12.23
2018-12-09T15:09:18.766Z,10.72
2018-12-09T15:11:46.523Z,15.60
2018-12-09T15:14:14.318Z,8.78
2018-12-09T15:16:42.850Z,14.35
2018-12-09T15:19:10.585Z,13.15
2018-12-09T15:21:38.469Z,12.47
2018-12-09T15:24:06.181Z,7.47
2018-12-09T15:26:34.053Z,9.50
2018-12-09T15:29:01.992Z,9.25
2018-12-09T15:31:29.754Z,7.72
2018-12-09T15:33:57.519Z,17.75
2018-12-09T15:36:25.290Z,12.60
2018-12-09T15:38:53.956Z,21.33
2018-12-09T15:41:21.649Z,13.10
2018-12-09T15:43:49.458Z,11.48
2018-12-09T15:46:17.252Z,9.25
2018-12-09T15:48:45.086Z,12.90
2018-12-09T15:51:14.002Z,12.15
2018-12-09T15:53:42.863Z,13.05
2018-12-09T15:56:10.729Z,10.50
2018-12-09T15:58:38.421Z,13.08
2018-12-09T16:01:06.251Z,10.38
2018-12-09T16:03:34.059Z,10.18
2018-12-09T16:06:01.791Z,11.88
2018-12-09T16:08:29.585Z,10.50
2018-12-09T16:10:57.383Z,8.00
2018-12-09T16:13:25.150Z,6.85
2018-12-09T16:15:53.963Z,5.92
2018-12-09T16:18:22.639Z,8.05
2018-12-09T16:20:51.502Z,5.22
2018-12-09T16:23:19.331Z,2.55
2018-12-09T16:25:47.165Z,8.50
2018-12-09T16:28:15.034Z,14.28
2018-12-09T16:30:43.013Z,7.37
2018-12-09T16:33:10.781Z,11.53
2018-12-09T16:35:38.662Z,3.17
2018-12-09T16:38:06.803Z,4.05
2018-12-09T16:40:34.611Z,7.83
2018-12-09T16:43:02.462Z,4.87
2018-12-09T16:45:30.336Z,5.65
2018-12-09T16:47:58.151Z,7.47
2018-12-09T16:50:26.313Z,6.85
2018-12-09T16:52:54.177Z,3.67
2018-12-09T16:55:21.998Z,8.53
2018-12-09T16:57:49.781Z,6.30
2018-12-09T17:00:17.502Z,7.78
2018-12-09T17:02:45.335Z,6.95
2018-12-09T17:05:13.181Z,7.65
2018-12-09T17:07:42.260Z,8.13
2018-12-09T17:10:10.382Z,5.22
2018-12-09T17:12:38.179Z,6.47
2018-12-09T17:15:06.775Z,7.15
2018-12-09T17:17:34.663Z,9.33
2018-12-09T17:20:06.397Z,8.13
2018-12-09T17:22:33.419Z,6.90
2018-12-09T17:25:01.238Z,7.87
2018-12-09T17:27:29.058Z,20.55
2018-12-09T17:29:56.750Z,9.03
2018-12-09T17:32:24.525Z,4.85
2018-12-09T17:34:53.311Z,6.20
2018-12-09T17:37:21.135Z,4.40
2018-12-09T17:39:48.825Z,5.92
2018-12-09T17:42:16.625Z,4.15
2018-12-09T17:44:44.396Z,3.85
2018-12-09T17:47:12.255Z,5.90
2018-12-09T17:49:40.871Z,5.15
2018-12-09T17:52:08.779Z,5.25
2018-12-09T17:54:38.182Z,10.40
2018-12-09T17:57:05.984Z,24.60
2018-12-09T17:59:33.742Z,9.78
2018-12-09T18:02:01.512Z,9.80
2018-12-09T18:04:29.399Z,7.50
2018-12-09T18:06:57.275Z,7.65
2018-12-09T18:09:25.091Z,3.55
2018-12-09T18:11:52.947Z,5.53
2018-12-09T18:14:20.792Z,3.45
2018-12-09T18:16:48.891Z,6.60
2018-12-09T18:19:16.662Z,8.83
2018-12-09T18:21:44.415Z,9.03
2018-12-09T18:24:12.300Z,4.90
2018-12-09T18:26:40.022Z,3.98
2018-12-09T18:29:07.799Z,8.98
2018-12-09T18:31:35.710Z,15.28
2018-12-09T18:34:03.394Z,5.58
2018-12-09T18:36:31.281Z,3.65
2018-12-09T18:38:59.174Z,13.58
2018-12-09T18:41:28.189Z,3.17
2018-12-09T18:43:56.037Z,4.40
2018-12-09T18:46:23.792Z,2.87
2018-12-09T18:48:52.115Z,2.20
2018-12-09T18:51:19.987Z,3.60
2018-12-09T18:53:47.862Z,7.45
2018-12-09T18:56:17.351Z,3.22
2018-12-09T18:58:46.137Z,5.05
2018-12-09T19:01:13.916Z,6.87
2018-12-09T19:03:41.736Z,4.60
2018-12-09T19:06:09.550Z,2.35
2018-12-09T19:08:37.455Z,7.58
2018-12-09T19:11:05.235Z,9.60
2018-12-09T19:13:32.985Z,3.45
2018-12-09T19:16:01.749Z,7.45
2018-12-09T19:18:29.531Z,6.75
2018-12-09T19:20:58.159Z,2.37
2018-12-09T19:23:25.939Z,3.08
2018-12-09T19:25:53.774Z,8.30
2018-12-09T19:28:21.507Z,6.67
2018-12-09T19:30:49.267Z,11.75
2018-12-09T19:33:17.149Z,6.22
2018-12-09T19:35:44.958Z,5.35
2018-12-09T19:38:12.751Z,12.43
2018-12-09T19:40:41.538Z,4.87
2018-12-09T19:43:09.378Z,11.83
2018-12-09T19:45:37.131Z,6.03
2018-12-09T19:48:04.897Z,6.28
2018-12-09T19:50:32.626Z,14.68
2018-12-09T19:53:01.111Z,4.45
2018-12-09T19:55:28.877Z,5.60
2018-12-09T19:57:56.607Z,6.67
2018-12-09T20:00:24.854Z,5.65
2018-12-09T20:02:52.593Z,5.20
2018-12-09T20:05:20.643Z,2.72
2018-12-09T20:07:48.531Z,7.40
2018-12-09T20:10:16.239Z,6.80
2018-12-09T20:12:44.095Z,2.75
2018-12-09T20:15:11.936Z,5.00
2018-12-09T20:17:39.676Z,7.90
2018-12-09T20:20:08.447Z,6.10
2018-12-09T20:22:36.317Z,5.08
2018-12-09T20:25:05.398Z,4.10
2018-12-09T20:27:33.870Z,3.37
2018-12-09T20:30:01.666Z,6.03
2018-12-09T20:32:35.137Z,4.42
2018-12-09T20:35:00.397Z,7.10
2018-12-09T20:37:28.238Z,4.85
2018-12-09T20:39:56.038Z,3.00
2018-12-09T20:42:23.842Z,6.08
2018-12-09T20:44:51.636Z,10.10
2018-12-09T20:47:20.027Z,4.45
2018-12-09T20:49:47.856Z,3.92
2018-12-09T20:52:15.668Z,6.03
2018-12-09T20:54:44.057Z,2.95
2018-12-09T20:57:11.874Z,5.33
2018-12-09T20:59:39.625Z,5.10
2018-12-09T21:02:07.359Z,5.75
2018-12-09T21:04:35.268Z,6.00
2018-12-09T21:07:03.069Z,3.00
2018-12-09T21:09:30.754Z,8.35
2018-12-09T21:11:58.705Z,6.22
2018-12-09T21:14:26.580Z,5.30
2018-12-09T21:16:54.518Z,5.80
2018-12-09T21:19:23.068Z,10.20
2018-12-09T21:21:50.993Z,3.50
2018-12-09T21:24:25.827Z,3.60
2018-12-09T21:26:49.408Z,3.37
2018-12-09T21:29:17.265Z,13.58
2018-12-09T21:31:45.164Z,7.95
2018-12-09T21:34:12.934Z,4.08
2018-12-09T21:36:40.816Z,4.37
2018-12-09T21:39:08.627Z,6.78
2018-12-09T21:41:36.372Z,2.87
2018-12-09T21:44:04.172Z,9.20
2018-12-09T21:46:32.003Z,4.00
2018-12-09T21:48:59.759Z,4.05
2018-12-09T21:51:27.618Z,4.60
2018-12-09T21:53:55.422Z,6.42
2018-12-09T21:56:23.210Z,8.00
2018-12-09T21:58:50.972Z,13.18
2018-12-09T22:01:18.781Z,7.50
2018-12-09T22:03:46.547Z,3.10
2018-12-09T22:06:14.311Z,5.85
2018-12-09T22:08:42.245Z,11.78
2018-12-09T22:11:10.065Z,2.77
2018-12-09T22:13:38.060Z,3.98
2018-12-09T22:16:07.074Z,3.58
2018-12-09T22:18:34.897Z,4.30
2018-12-09T22:21:03.569Z,3.20
2018-12-09T22:23:31.438Z,4.33
2018-12-09T22:25:59.347Z,6.70
2018-12-09T22:28:27.318Z,12.33
2018-12-09T22:30:55.051Z,15.60
2018-12-09T22:33:22.837Z,3.27
2018-12-09T22:35:50.559Z,4.90
2018-12-09T22:38:19.547Z,3.15
2018-12-09T22:40:48.222Z,3.45
2018-12-09T22:43:16.962Z,2.62
2018-12-09T22:45:44.714Z,6.40
2018-12-09T22:48:12.559Z,7.80
2018-12-09T22:50:41.233Z,3.20
2018-12-09T22:53:09.053Z,7.70
2018-12-09T22:55:36.853Z,3.45
2018-12-09T22:58:04.573Z,3.10
2018-12-09T23:00:32.560Z,5.40
2018-12-09T23:03:03.470Z,5.37
2018-12-09T23:05:31.258Z,10.18
2018-12-09T23:07:59.063Z,7.35
2018-12-09T23:10:26.921Z,5.87
2018-12-09T23:12:55.300Z,11.85
2018-12-09T23:15:24.010Z,4.75
2018-12-09T23:17:51.712Z,9.28
2018-12-09T23:20:19.474Z,4.45
2018-12-09T23:22:47.239Z,6.00
2018-12-09T23:25:15.008Z,2.95
2018-12-09T23:27:43.020Z,3.08
2018-12-09T23:30:10.799Z,3.65
2018-12-09T23:32:38.663Z,5.35
2018-12-09T23:35:06.439Z,4.53
2018-12-09T23:37:34.313Z,3.50
2018-12-09T23:40:02.205Z,6.47
2018-12-09T23:42:29.946Z,4.25
2018-12-09T23:44:57.766Z,9.93
2018-12-09T23:47:25.486Z,10.93
2018-12-09T23:49:53.271Z,4.85
2018-12-09T23:52:21.639Z,4.08
2018-12-09T23:54:49.573Z,2.42
2018-12-09T23:57:17.361Z,5.95
2018-12-09T23:59:45.092Z,3.35
